Time;durP1;ratioP1;P1;durP2;ratioP2;P2;SDS_P1;SDS_P2;PMS_P1;PMS_P2;Temp;Humidity;BMP_temperature;BMP_pressure;BME280_temperature;BME280_humidity;BME280_pressure;Samples;Min_cycle;Max_cycle;Signal;HPM_P1;HPM_P2
2022/12/19 00:02:05;;;;;;;43.83;24.67;;;1.30;77.00;;;;;;5098115;28;20039;-69
2022/12/19 00:04:32;;;;;;;41.83;24.80;;;1.30;77.20;;;;;;5096752;27;20034;-70
2022/12/19 00:06:58;;;;;;;39.53;23.73;;;1.40;77.50;;;;;;5127944;27;20039;-69
2022/12/19 00:09:25;;;;;;;40.77;26.07;;;1.40;77.50;;;;;;5118047;27;20080;-70
2022/12/19 00:11:51;;;;;;;40.80;24.00;;;1.40;77.50;;;;;;5132897;27;20040;-69
2022/12/19 00:14:17;;;;;;;41.27;23.63;;;1.40;77.60;;;;;;5134113;27;20506;-69
2022/12/19 00:16:43;;;;;;;42.30;25.40;;;1.40;77.70;;;;;;5117583;27;20038;-69
2022/12/19 00:19:10;;;;;;;44.07;24.73;;;1.40;77.70;;;;;;5117499;27;20406;-69
2022/12/19 00:21:36;;;;;;;41.07;23.43;;;1.40;77.90;;;;;;5117920;27;20035;-69
2022/12/19 00:24:04;;;;;;;44.90;25.03;;;1.50;78.00;;;;;;5122503;27;20035;-70
2022/12/19 00:26:31;;;;;;;41.00;23.87;;;1.50;78.10;;;;;;5117656;27;20039;-70
2022/12/19 00:29:01;;;;;;;43.63;24.40;;;1.50;78.20;;;;;;5100429;27;20085;-69
2022/12/19 00:31:29;;;;;;;43.03;24.07;;;1.50;78.20;;;;;;5130093;27;20051;-73
2022/12/19 00:33:55;;;;;;;43.50;25.13;;;1.60;78.40;;;;;;5126137;27;20066;-73
2022/12/19 00:36:23;;;;;;;39.30;22.97;;;1.60;78.30;;;;;;5102885;27;20131;-73
2022/12/19 00:38:50;;;;;;;40.50;23.13;;;1.60;78.40;;;;;;5117285;27;20040;-73
2022/12/19 00:41:20;;;;;;;43.47;23.73;;;1.60;78.40;;;;;;5117258;27;20047;-73
2022/12/19 00:43:46;;;;;;;41.77;23.83;;;1.60;78.40;;;;;;5124093;27;20118;-73
2022/12/19 00:46:14;;;;;;;43.53;23.77;;;1.60;78.40;;;;;;5117496;27;20063;-73
2022/12/19 00:48:41;;;;;;;44.83;24.27;;;1.70;78.50;;;;;;5100397;27;20047;-73
2022/12/19 00:51:10;;;;;;;44.80;24.80;;;1.70;78.50;;;;;;5125378;27;20074;-73
2022/12/19 00:53:36;;;;;;;40.57;22.20;;;1.70;78.60;;;;;;5101761;27;20070;-73
2022/12/19 00:56:08;;;;;;;40.30;23.10;;;1.70;78.60;;;;;;5117183;27;20527;-73
2022/12/19 00:58:34;;;;;;;38.73;23.87;;;1.70;78.60;;;;;;5117133;27;20087;-73
2022/12/19 01:01:22;;;;;;;41.80;24.93;;;1.80;78.60;;;;;;5123868;27;20611;-73
2022/12/19 01:03:49;;;;;;;40.47;22.87;;;1.80;78.60;;;;;;5127509;27;20035;-73
2022/12/19 01:06:15;;;;;;;36.43;21.30;;;1.80;78.60;;;;;;5119229;27;20482;-73
2022/12/19 01:08:41;;;;;;;37.50;22.63;;;1.90;78.60;;;;;;5116789;27;20043;-73
2022/12/19 01:11:07;;;;;;;41.07;23.03;;;1.90;78.60;;;;;;5099775;27;20050;-73
2022/12/19 01:13:35;;;;;;;38.53;21.93;;;1.90;78.60;;;;;;5116630;27;20061;-73
2022/12/19 01:16:07;;;;;;;39.27;22.27;;;1.90;78.70;;;;;;5126099;27;20440;-73
2022/12/19 01:18:33;;;;;;;38.23;22.40;;;1.90;78.70;;;;;;5123204;27;20406;-74
2022/12/19 01:21:01;;;;;;;44.20;22.77;;;2.10;78.70;;;;;;5116194;27;20035;-74
2022/12/19 01:23:26;;;;;;;36.80;21.70;;;1.90;78.60;;;;;;5082560;27;20038;-74
2022/12/19 01:25:53;;;;;;;36.17;21.50;;;2.00;78.60;;;;;;5105897;27;20375;-73
2022/12/19 01:28:19;;;;;;;37.17;21.53;;;2.00;78.60;;;;;;5116378;27;20160;-74
2022/12/19 01:30:45;;;;;;;42.63;23.33;;;2.00;78.60;;;;;;5116688;27;20493;-73
2022/12/19 01:33:12;;;;;;;38.87;22.17;;;2.00;78.50;;;;;;5105906;27;20047;-73
2022/12/19 01:35:38;;;;;;;37.80;21.77;;;2.00;78.60;;;;;;5118454;27;20493;-73
2022/12/19 01:38:04;;;;;;;39.00;22.33;;;2.00;78.60;;;;;;5078192;28;20043;-73
2022/12/19 01:40:30;;;;;;;41.87;21.90;;;2.10;78.70;;;;;;5121774;27;20040;-73
2022/12/19 01:42:56;;;;;;;42.47;23.57;;;2.10;78.70;;;;;;5116265;27;20483;-70
2022/12/19 01:45:33;;;;;;;37.53;22.63;;;2.10;78.60;;;;;;5116592;27;20072;-70
2022/12/19 01:48:21;;;;;;;40.90;22.80;;;2.10;78.80;;;;;;5127448;27;20549;-70
2022/12/19 01:51:02;;;;;;;40.47;23.00;;;2.10;78.90;;;;;;5131331;27;20046;-70
2022/12/19 01:53:35;;;;;;;46.30;24.77;;;2.10;79.00;;;;;;5115478;27;20047;-70
2022/12/19 01:56:03;;;;;;;39.87;23.63;;;2.10;79.00;;;;;;5126710;27;20039;-70
2022/12/19 01:58:29;;;;;;;43.43;24.23;;;2.10;79.20;;;;;;5120838;27;20398;-70
2022/12/19 02:00:55;;;;;;;43.47;24.43;;;2.10;79.20;;;;;;5122928;27;20047;-69
2022/12/19 02:03:27;;;;;;;45.53;25.17;;;2.20;79.30;;;;;;5098693;27;20035;-70
2022/12/19 02:05:54;;;;;;;45.07;24.33;;;2.20;79.50;;;;;;5109585;27;20119;-70
2022/12/19 02:08:20;;;;;;;43.53;24.13;;;2.10;79.50;;;;;;5112444;27;20027;-69
2022/12/19 02:10:46;;;;;;;47.57;24.37;;;2.20;79.80;;;;;;5098824;27;20393;-70
2022/12/19 02:13:13;;;;;;;49.83;25.13;;;2.20;79.80;;;;;;5104389;27;20039;-69
2022/12/19 02:16:10;;;;;;;48.80;25.83;;;2.20;79.90;;;;;;5116317;27;20057;-70
2022/12/19 02:18:48;;;;;;;48.00;25.60;;;2.20;80.10;;;;;;5095399;27;20096;-69
2022/12/19 02:22:05;;;;;;;46.03;24.60;;;2.20;80.30;;;;;;5115545;27;20047;-72
2022/12/19 02:24:52;;;;;;;45.23;24.87;;;2.20;80.20;;;;;;5076701;27;20390;-72
2022/12/19 02:27:44;;;;;;;43.87;24.30;;;2.20;80.50;;;;;;5121791;27;20047;-73
2022/12/19 02:30:12;;;;;;;45.70;25.07;;;2.20;80.50;;;;;;5110456;27;20133;-73
2022/12/19 02:32:47;;;;;;;43.53;25.47;;;2.20;80.60;;;;;;5115481;27;20043;-73
2022/12/19 02:35:16;;;;;;;43.80;24.83;;;2.30;80.80;;;;;;5123759;27;20398;-73
2022/12/19 02:37:49;;;;;;;48.43;25.67;;;2.30;81.00;;;;;;5129701;27;20066;-69
2022/12/19 02:40:28;;;;;;;52.23;28.40;;;2.30;81.00;;;;;;5122119;27;20039;-70
2022/12/19 02:42:58;;;;;;;48.70;27.60;;;2.30;81.20;;;;;;5098367;28;20041;-69
2022/12/19 02:45:28;;;;;;;47.00;26.37;;;2.30;81.20;;;;;;5124646;28;20043;-69
2022/12/19 02:47:54;;;;;;;48.43;26.43;;;2.30;81.30;;;;;;5124010;28;20043;-69
2022/12/19 02:50:20;;;;;;;49.80;26.47;;;2.30;81.50;;;;;;5114715;28;20047;-69
2022/12/19 02:52:47;;;;;;;44.70;25.97;;;2.30;81.50;;;;;;5115211;28;20039;-68
2022/12/19 02:55:21;;;;;;;49.00;27.13;;;2.40;81.60;;;;;;5124498;28;20512;-68
2022/12/19 02:58:22;;;;;;;45.80;26.48;;;2.40;81.90;;;;;;5115363;28;20042;-68
2022/12/19 03:01:06;;;;;;;47.43;26.47;;;2.40;81.90;;;;;;5082998;28;20126;-68
2022/12/19 03:03:57;;;;;;;52.95;28.45;;;2.50;82.10;;;;;;5117456;28;20047;-68
2022/12/19 03:06:37;;;;;;;49.30;27.23;;;2.50;82.30;;;;;;5117091;27;20027;-68
2022/12/19 03:09:26;;;;;;;48.93;28.00;;;2.50;82.30;;;;;;5122006;27;20035;-68
2022/12/19 03:12:01;;;;;;;48.93;28.57;;;2.50;82.30;;;;;;5086184;27;20050;-68
2022/12/19 03:14:29;;;;;;;49.87;29.10;;;2.60;82.40;;;;;;5119629;27;20070;-68
2022/12/19 03:16:55;;;;;;;50.97;29.83;;;2.60;82.40;;;;;;5136724;27;20035;-68
2022/12/19 03:19:22;;;;;;;52.50;28.40;;;2.60;82.40;;;;;;5118682;27;20550;-69
2022/12/19 03:21:49;;;;;;;53.93;29.50;;;2.50;82.30;;;;;;5118844;27;20050;-69
2022/12/19 03:24:16;;;;;;;47.37;26.90;;;2.60;82.40;;;;;;5130971;27;20031;-69
2022/12/19 03:26:59;;;;;;;55.93;28.93;;;2.60;82.40;;;;;;5101642;27;20088;-68
2022/12/19 03:29:44;;;;;;;52.83;29.02;;;2.60;82.60;;;;;;5118327;27;20043;-68
2022/12/19 03:32:12;;;;;;;56.67;29.03;;;2.60;82.60;;;;;;5118493;27;20047;-68
2022/12/19 03:35:09;;;;;;;54.20;29.33;;;2.70;82.70;;;;;;5103635;27;20409;-69
2022/12/19 03:37:38;;;;;;;54.00;29.93;;;2.60;82.70;;;;;;5116652;27;20051;-68
2022/12/19 03:40:11;;;;;;;53.85;28.88;;;2.70;82.70;;;;;;5118334;27;20112;-68
2022/12/19 03:45:48;;;;;;;51.83;29.40;;;2.70;82.70;;;;;;5119696;27;20108;-68
2022/12/19 03:48:26;;;;;;;58.97;30.90;;;2.70;82.80;;;;;;5118390;27;20050;-68
2022/12/19 03:51:13;;;;;;;57.10;29.08;;;2.80;82.90;;;;;;5099037;27;20047;-68
2022/12/19 03:53:57;;;;;;;53.92;30.00;;;2.80;82.80;;;;;;5127340;27;20043;-68
2022/12/19 03:56:57;;;;;;;55.08;30.17;;;2.80;83.00;;;;;;5134096;27;20484;-67
2022/12/19 03:59:34;;;;;;;55.40;30.20;;;2.80;83.00;;;;;;5117969;27;20039;-68
2022/12/19 04:02:01;;;;;;;56.90;31.73;;;2.80;83.00;;;;;;5118487;27;20039;-68
2022/12/19 04:04:29;;;;;;;54.53;30.70;;;2.80;83.00;;;;;;5102243;27;20391;-68
2022/12/19 04:06:57;;;;;;;52.42;29.15;;;2.90;83.20;;;;;;5135262;27;20066;-68
2022/12/19 04:09:23;;;;;;;49.92;29.80;;;2.90;83.20;;;;;;5121143;27;20122;-68
2022/12/19 04:11:57;;;;;;;49.95;29.40;;;2.90;83.20;;;;;;5117615;27;20054;-68
2022/12/19 04:14:28;;;;;;;50.97;29.40;;;2.90;83.20;;;;;;5117081;27;20032;-68
2022/12/19 04:17:04;;;;;;;54.67;30.27;;;2.90;83.20;;;;;;5126165;27;20285;-68
2022/12/19 04:19:59;;;;;;;54.70;29.60;;;3.00;83.40;;;;;;5118037;27;20077;-68
2022/12/19 04:22:37;;;;;;;48.43;27.60;;;3.00;83.40;;;;;;5124639;27;20387;-68
2022/12/19 04:25:08;;;;;;;50.03;28.98;;;3.00;83.40;;;;;;5105639;27;20043;-68
2022/12/19 04:27:37;;;;;;;52.83;29.33;;;3.00;83.40;;;;;;5117372;27;20059;-68
2022/12/19 04:30:05;;;;;;;60.13;30.23;;;3.10;83.50;;;;;;5117485;27;20043;-68
2022/12/19 04:32:34;;;;;;;52.20;29.52;;;3.10;83.50;;;;;;5117705;27;20110;-68
2022/12/19 04:35:00;;;;;;;49.97;28.38;;;3.10;83.50;;;;;;5117582;27;20035;-68
2022/12/19 04:37:27;;;;;;;49.55;27.67;;;3.20;83.60;;;;;;5117642;27;20043;-68
2022/12/19 04:39:53;;;;;;;52.78;27.98;;;3.20;83.60;;;;;;5108105;27;20035;-67
2022/12/19 04:42:18;;;;;;;55.50;28.63;;;3.20;83.60;;;;;;5117697;27;20127;-68
2022/12/19 04:44:44;;;;;;;49.60;27.80;;;3.20;83.60;;;;;;5117696;27;20035;-68
2022/12/19 04:47:09;;;;;;;50.88;28.00;;;3.20;83.60;;;;;;5126562;27;20393;-68
2022/12/19 04:49:35;;;;;;;45.38;27.20;;;3.20;83.70;;;;;;5117292;27;20501;-67
2022/12/19 04:52:01;;;;;;;47.75;27.00;;;3.20;83.60;;;;;;5117315;27;20126;-67
2022/12/19 04:54:26;;;;;;;45.25;26.02;;;3.20;83.70;;;;;;5116538;27;20038;-68
2022/12/19 04:56:53;;;;;;;49.97;27.25;;;3.30;83.80;;;;;;5100086;27;20042;-68
2022/12/19 04:59:18;;;;;;;49.55;28.40;;;3.30;83.80;;;;;;5117103;27;20035;-68
2022/12/19 05:01:44;;;;;;;48.97;28.45;;;3.30;84.20;;;;;;5117023;27;20055;-68
2022/12/19 05:04:10;;;;;;;49.15;27.60;;;3.30;83.80;;;;;;5117140;27;20176;-68
2022/12/19 05:06:36;;;;;;;48.47;26.92;;;3.90;84.20;;;;;;5115798;27;20461;-68
2022/12/19 05:09:01;;;;;;;48.92;26.38;;;3.40;83.90;;;;;;5127209;27;20032;-68
2022/12/19 05:11:27;;;;;;;49.92;28.67;;;3.40;84.00;;;;;;5099635;27;20099;-72
2022/12/19 05:13:53;;;;;;;49.10;27.83;;;3.40;84.00;;;;;;5116843;27;20126;-71
2022/12/19 05:16:18;;;;;;;45.28;26.42;;;3.40;84.00;;;;;;5117257;27;20050;-71
2022/12/19 05:18:44;;;;;;;45.17;26.40;;;3.40;84.00;;;;;;5116877;27;20490;-71
2022/12/19 05:21:10;;;;;;;46.90;26.85;;;3.40;84.10;;;;;;5116451;27;20031;-71
2022/12/19 05:23:36;;;;;;;50.17;27.98;;;3.40;84.10;;;;;;5121706;27;20535;-71
2022/12/19 05:26:03;;;;;;;47.60;26.35;;;3.40;84.10;;;;;;5104612;27;20134;-71
2022/12/19 05:28:30;;;;;;;46.03;26.73;;;3.50;84.30;;;;;;5112261;28;20461;-71
2022/12/19 05:31:08;;;;;;;46.30;26.67;;;3.50;84.40;;;;;;5096346;28;20066;-71
2022/12/19 05:33:34;;;;;;;46.95;26.08;;;3.50;84.40;;;;;;5113124;28;20054;-68
2022/12/19 05:36:00;;;;;;;45.47;27.33;;;3.50;84.40;;;;;;5112656;28;20054;-68
2022/12/19 05:38:26;;;;;;;44.97;25.08;;;3.50;84.40;;;;;;5112571;28;20036;-69
2022/12/19 05:40:52;;;;;;;49.25;26.02;;;3.50;84.50;;;;;;5112296;28;20471;-68
2022/12/19 05:43:18;;;;;;;43.10;24.77;;;3.90;84.80;;;;;;5113083;28;20082;-68
2022/12/19 05:45:43;;;;;;;43.40;25.02;;;3.60;84.60;;;;;;5106654;28;20123;-68
2022/12/19 05:48:09;;;;;;;42.83;24.52;;;3.60;84.50;;;;;;5109592;27;20040;-68
2022/12/19 05:50:35;;;;;;;39.92;23.48;;;3.60;84.50;;;;;;5113705;27;20542;-70
2022/12/19 05:53:00;;;;;;;40.22;23.02;;;3.60;84.60;;;;;;5113941;28;20036;-69
2022/12/19 05:55:26;;;;;;;40.92;22.60;;;3.70;84.70;;;;;;5095427;28;20040;-68
2022/12/19 05:57:52;;;;;;;41.50;24.25;;;3.70;84.70;;;;;;5113931;28;20114;-68
2022/12/19 06:00:18;;;;;;;42.83;22.52;;;3.70;84.80;;;;;;5112175;28;20048;-69
2022/12/19 06:02:45;;;;;;;37.38;22.38;;;3.70;84.80;;;;;;5094666;28;20035;-68
2022/12/19 06:05:10;;;;;;;38.47;22.00;;;3.70;84.80;;;;;;5112028;28;20039;-68
2022/12/19 06:07:36;;;;;;;40.05;22.55;;;3.80;84.90;;;;;;5094576;28;20391;-68
2022/12/19 06:10:02;;;;;;;37.95;22.75;;;3.80;84.90;;;;;;5111640;28;20084;-72
2022/12/19 06:12:28;;;;;;;43.72;24.50;;;3.80;84.90;;;;;;5110251;28;20040;-74
2022/12/19 06:14:54;;;;;;;36.35;22.08;;;3.80;84.90;;;;;;5111835;28;20046;-74
2022/12/19 06:17:19;;;;;;;36.67;21.55;;;3.80;84.90;;;;;;5095091;28;20100;-74
2022/12/19 06:19:45;;;;;;;36.00;21.80;;;3.90;85.00;;;;;;5111863;28;20449;-71
2022/12/19 06:22:11;;;;;;;35.38;21.15;;;3.80;85.00;;;;;;5094816;28;20039;-71
2022/12/19 06:24:36;;;;;;;36.50;21.65;;;3.90;85.00;;;;;;5111779;28;20044;-71
2022/12/19 06:27:02;;;;;;;33.65;20.92;;;3.90;85.10;;;;;;5111794;28;20060;-71
2022/12/19 06:29:28;;;;;;;36.33;20.23;;;3.90;85.10;;;;;;5095249;28;20081;-73
2022/12/19 06:31:53;;;;;;;33.30;20.42;;;4.00;85.20;;;;;;5111696;28;20035;-73
2022/12/19 06:34:19;;;;;;;34.33;20.95;;;4.00;85.20;;;;;;5111749;28;20048;-72
2022/12/19 06:36:45;;;;;;;33.38;19.92;;;4.00;85.20;;;;;;5112036;28;20039;-71
2022/12/19 06:39:14;;;;;;;35.83;20.70;;;4.00;85.20;;;;;;5111532;28;20053;-71
2022/12/19 06:44:26;;;;;;;34.30;20.10;;;4.10;85.40;;;;;;5112007;28;20082;-71
2022/12/19 06:46:52;;;;;;;35.75;20.00;;;4.10;85.30;;;;;;5078392;28;20078;-72
2022/12/19 06:49:18;;;;;;;30.08;18.83;;;4.10;85.40;;;;;;5112168;28;20071;-71
2022/12/19 06:51:45;;;;;;;36.58;19.98;;;4.10;85.40;;;;;;5111868;28;20122;-71
2022/12/19 06:54:11;;;;;;;36.88;19.80;;;4.20;85.50;;;;;;5112013;28;20371;-72
2022/12/19 06:56:39;;;;;;;31.25;19.10;;;4.20;85.60;;;;;;5112183;28;20044;-72
2022/12/19 06:59:06;;;;;;;31.80;19.38;;;4.20;85.70;;;;;;5111946;28;20071;-71
2022/12/19 07:01:51;;;;;;;32.75;18.73;;;4.20;86.10;;;;;;5111778;28;20172;-71
2022/12/19 07:04:20;;;;;;;;;;;4.30;85.90;;;;;;5112376;28;20046;-71
2022/12/19 07:06:45;;;;;;;30.52;18.73;;;4.30;85.90;;;;;;5112041;28;20387;-71
2022/12/19 07:09:11;;;;;;;31.08;17.95;;;4.30;85.90;;;;;;5111711;28;20128;-71
2022/12/19 07:11:37;;;;;;;34.35;19.27;;;4.40;86.00;;;;;;5111612;28;20104;-71
2022/12/19 07:14:02;;;;;;;32.45;18.75;;;4.40;86.00;;;;;;5111701;28;20050;-71
2022/12/19 07:16:28;;;;;;;32.58;18.75;;;4.50;86.00;;;;;;5111507;28;20054;-71
2022/12/19 07:18:54;;;;;;;32.40;19.08;;;4.50;86.20;;;;;;5077889;28;20144;-72
2022/12/19 07:21:21;;;;;;;32.28;19.40;;;4.50;86.10;;;;;;5111445;28;20043;-72
2022/12/19 07:23:46;;;;;;;30.65;18.25;;;4.60;86.20;;;;;;5111662;28;20039;-72
2022/12/19 07:26:12;;;;;;;35.58;20.08;;;4.60;86.20;;;;;;5111581;28;20036;-72
2022/12/19 07:28:38;;;;;;;30.38;17.67;;;4.60;86.20;;;;;;5111469;28;20074;-73
2022/12/19 07:31:04;;;;;;;30.10;17.45;;;4.70;86.30;;;;;;5111747;28;20051;-72
2022/12/19 07:33:29;;;;;;;34.42;18.85;;;4.70;86.40;;;;;;5111212;28;20046;-73
2022/12/19 07:35:55;;;;;;;25.85;16.85;;;4.70;86.40;;;;;;5111142;28;20126;-73
2022/12/19 07:38:21;;;;;;;28.33;17.15;;;4.70;86.80;;;;;;5111513;28;20043;-72
2022/12/19 07:40:46;;;;;;;31.20;18.13;;;4.70;86.40;;;;;;5094598;28;20042;-73
2022/12/19 07:43:12;;;;;;;31.25;18.10;;;4.80;86.50;;;;;;5110891;28;20540;-72
2022/12/19 07:45:38;;;;;;;28.92;17.48;;;4.80;86.50;;;;;;5077740;28;20083;-73
2022/12/19 07:48:05;;;;;;;29.27;17.08;;;4.80;86.50;;;;;;5111334;28;20032;-73
2022/12/19 07:50:31;;;;;;;28.23;17.55;;;4.90;86.70;;;;;;5111523;28;20047;-73
2022/12/19 07:52:58;;;;;;;29.20;16.73;;;4.90;86.70;;;;;;5114300;28;20536;-73
2022/12/19 07:55:24;;;;;;;30.67;17.85;;;4.90;86.70;;;;;;5114992;28;20039;-72
2022/12/19 07:57:50;;;;;;;29.02;16.67;;;4.90;86.70;;;;;;5115472;28;20513;-73
2022/12/19 08:00:16;;;;;;;27.30;16.08;;;5.00;86.90;;;;;;5115120;28;20079;-72
2022/12/19 08:02:42;;;;;;;24.90;16.48;;;5.00;86.80;;;;;;5115341;28;20394;-73
2022/12/19 08:05:08;;;;;;;26.15;15.73;;;5.10;86.90;;;;;;5098275;28;20035;-73
2022/12/19 08:07:34;;;;;;;25.63;16.30;;;5.10;86.90;;;;;;5097972;28;20079;-73
2022/12/19 08:09:59;;;;;;;26.88;16.95;;;5.10;87.00;;;;;;5098201;28;20112;-73
2022/12/19 08:12:25;;;;;;;26.23;16.10;;;5.10;87.00;;;;;;5097985;28;20058;-73
2022/12/19 08:14:51;;;;;;;25.17;16.42;;;5.20;87.10;;;;;;5115127;28;20386;-73
2022/12/19 08:17:17;;;;;;;26.23;16.35;;;5.20;87.10;;;;;;5114753;28;20047;-69
2022/12/19 08:19:43;;;;;;;24.80;16.50;;;5.20;87.10;;;;;;5114679;28;20044;-73
2022/12/19 08:22:09;;;;;;;25.88;16.00;;;5.20;87.20;;;;;;5114994;28;20089;-68
2022/12/19 08:24:35;;;;;;;23.40;15.35;;;5.30;87.20;;;;;;5114645;28;20560;-73
2022/12/19 08:27:01;;;;;;;27.33;16.17;;;5.30;87.30;;;;;;5114757;28;20403;-73
2022/12/19 08:29:26;;;;;;;25.98;16.75;;;5.30;87.30;;;;;;5114396;28;20047;-73
2022/12/19 08:31:52;;;;;;;24.52;15.93;;;5.30;87.20;;;;;;5114675;28;20075;-73
2022/12/19 08:34:18;;;;;;;26.48;16.42;;;5.30;87.30;;;;;;5115504;28;20038;-74
2022/12/19 08:36:44;;;;;;;22.80;15.18;;;5.30;87.30;;;;;;5097540;28;20050;-75
2022/12/19 08:39:10;;;;;;;23.65;15.38;;;5.40;87.30;;;;;;5114056;28;20475;-73
2022/12/19 08:41:36;;;;;;;25.25;16.17;;;5.50;87.40;;;;;;5114387;28;20075;-73
2022/12/19 08:44:02;;;;;;;21.83;14.65;;;5.50;87.40;;;;;;5114192;28;20470;-73
2022/12/19 08:46:27;;;;;;;20.23;15.13;;;5.50;87.50;;;;;;5097333;28;20062;-73
2022/12/19 08:48:53;;;;;;;24.30;15.57;;;5.50;87.50;;;;;;5080602;28;20118;-73
2022/12/19 08:51:19;;;;;;;26.40;16.30;;;5.50;87.40;;;;;;5114129;28;20043;-73
2022/12/19 08:53:45;;;;;;;27.25;17.13;;;5.50;87.40;;;;;;5080225;28;20048;-72
2022/12/19 08:56:18;;;;;;;23.73;15.88;;;5.60;87.50;;;;;;5114021;28;20047;-73
2022/12/19 08:58:45;;;;;;;24.40;16.92;;;5.60;87.90;;;;;;5113857;28;20039;-73
2022/12/19 09:01:17;;;;;;;28.08;15.95;;;5.70;87.60;;;;;;5113808;28;20119;-73
2022/12/19 09:03:43;;;;;;;25.65;17.20;;;5.80;87.70;;;;;;5096195;28;20360;-73
2022/12/19 09:06:11;;;;;;;26.33;16.00;;;5.70;87.70;;;;;;5096916;28;20040;-73
2022/12/19 09:08:37;;;;;;;26.45;16.75;;;5.70;87.80;;;;;;5113643;28;20088;-73
2022/12/19 09:11:07;;;;;;;28.50;17.35;;;5.80;87.80;;;;;;5113924;28;20062;-73
2022/12/19 09:13:33;;;;;;;31.27;18.35;;;5.80;87.80;;;;;;5113685;28;20050;-73
2022/12/19 09:16:01;;;;;;;27.70;17.90;;;5.80;87.80;;;;;;5096987;28;20409;-73
2022/12/19 09:18:27;;;;;;;26.00;16.77;;;5.80;87.90;;;;;;5096575;28;20483;-73
2022/12/19 09:20:54;;;;;;;27.15;17.65;;;5.90;87.90;;;;;;5113615;28;20040;-72
2022/12/19 09:23:20;;;;;;;33.35;18.83;;;5.90;88.00;;;;;;5113486;28;20118;-72
2022/12/19 09:25:46;;;;;;;26.92;18.60;;;6.00;88.10;;;;;;5113842;28;20391;-73
2022/12/19 09:28:12;;;;;;;30.52;18.45;;;6.00;88.10;;;;;;5113517;28;20069;-73
2022/12/19 09:30:37;;;;;;;29.70;18.40;;;6.00;88.10;;;;;;5113366;28;20056;-73
2022/12/19 09:33:03;;;;;;;29.77;18.25;;;6.10;88.20;;;;;;5113344;28;20092;-73
2022/12/19 09:35:29;;;;;;;28.40;18.90;;;6.20;88.30;;;;;;5113379;28;20036;-72
2022/12/19 09:37:55;;;;;;;28.30;17.98;;;6.10;88.30;;;;;;5096350;28;20124;-73
2022/12/19 09:40:20;;;;;;;28.83;17.50;;;6.20;88.40;;;;;;5113240;28;20035;-74
2022/12/19 09:42:55;;;;;;;28.15;17.92;;;6.20;88.40;;;;;;5113560;28;20048;-74
2022/12/19 09:45:39;;;;;;;27.13;17.15;;;6.30;88.50;;;;;;5113296;28;20039;-74
2022/12/19 09:48:12;;;;;;;25.45;16.67;;;6.30;88.50;;;;;;5113250;28;20040;-74
2022/12/19 09:51:02;;;;;;;27.00;17.90;;;6.40;88.60;;;;;;5113102;28;20114;-72
2022/12/19 09:53:35;;;;;;;28.65;18.27;;;6.40;88.70;;;;;;5113131;28;20108;-74
2022/12/19 09:56:02;;;;;;;24.95;15.82;;;6.40;88.70;;;;;;5096202;28;20044;-74
2022/12/19 09:58:31;;;;;;;27.77;17.65;;;6.50;88.70;;;;;;5113340;28;20066;-74
2022/12/19 10:01:01;;;;;;;25.98;17.17;;;6.50;88.70;;;;;;5112884;28;20047;-73
2022/12/19 10:03:33;;;;;;;28.52;17.20;;;6.60;88.80;;;;;;5112963;28;20039;-74
2022/12/19 10:06:01;;;;;;;25.73;16.73;;;6.60;88.90;;;;;;5112939;28;20035;-73
2022/12/19 10:08:32;;;;;;;27.63;16.70;;;6.70;88.90;;;;;;5112782;28;20046;-73
2022/12/19 10:11:08;;;;;;;27.73;17.10;;;6.70;88.90;;;;;;5112723;28;20048;-73
2022/12/19 10:14:12;;;;;;;25.95;16.73;;;6.70;89.00;;;;;;5112956;28;20402;-73
2022/12/19 10:17:26;;;;;;;25.83;16.65;;;6.80;89.10;;;;;;5112608;28;20134;-73
2022/12/19 10:19:54;;;;;;;28.27;16.08;;;6.80;89.10;;;;;;5057440;28;20052;-72
2022/12/19 10:22:35;;;;;;;22.75;14.68;;;6.90;89.20;;;;;;5112573;28;20032;-72
2022/12/19 10:25:35;;;;;;;21.95;14.15;;;7.00;89.30;;;;;;5112483;28;20075;-73
2022/12/19 10:28:10;;;;;;;20.70;13.80;;;7.00;89.30;;;;;;5112334;28;20491;-75
2022/12/19 10:30:46;;;;;;;25.75;15.50;;;7.10;89.30;;;;;;5112137;28;20052;-73
2022/12/19 10:33:25;;;;;;;23.98;15.05;;;7.20;89.40;;;;;;5112527;28;20433;-73
2022/12/19 10:35:55;;;;;;;23.55;14.52;;;7.20;89.40;;;;;;5116200;27;20084;-73
2022/12/19 10:38:36;;;;;;;22.73;14.07;;;7.20;89.30;;;;;;5117329;27;20035;-73
2022/12/19 10:41:18;;;;;;;21.75;14.48;;;7.30;89.50;;;;;;5113442;27;20143;-74
2022/12/19 10:44:04;;;;;;;25.00;16.13;;;7.30;89.50;;;;;;5117645;27;20543;-72
2022/12/19 10:46:42;;;;;;;21.38;13.10;;;7.30;89.50;;;;;;5115048;27;20031;-73
2022/12/19 10:49:21;;;;;;;22.83;14.63;;;7.30;89.90;;;;;;5120288;27;20039;-74
2022/12/19 10:52:04;;;;;;;20.80;14.45;;;7.40;89.50;;;;;;5117389;27;20046;-74
2022/12/19 10:54:36;;;;;;;19.85;13.80;;;7.40;89.60;;;;;;5116887;28;20104;-73
2022/12/19 10:57:27;;;;;;;20.05;13.65;;;7.40;89.50;;;;;;5125083;28;20046;-69
2022/12/19 10:59:57;;;;;;;19.27;13.95;;;7.50;89.60;;;;;;5118503;28;20372;-69
2022/12/19 11:03:06;;;;;;;21.02;13.57;;;7.50;89.50;;;;;;5110973;28;20028;-68
2022/12/19 11:05:49;;;;;;;19.38;12.77;;;7.50;89.60;;;;;;5104420;28;20058;-68
2022/12/19 11:08:19;;;;;;;17.33;12.35;;;7.60;89.70;;;;;;5110782;28;20075;-69
2022/12/19 11:10:48;;;;;;;22.75;14.30;;;7.60;89.60;;;;;;5111061;28;20476;-69
2022/12/19 11:13:23;;;;;;;17.30;11.68;;;7.60;89.60;;;;;;5094917;28;20050;-68
2022/12/19 11:15:53;;;;;;;16.27;12.38;;;7.70;89.70;;;;;;5111422;28;20043;-68
2022/12/19 11:18:19;;;;;;;19.45;12.50;;;7.70;89.70;;;;;;5113411;28;20042;-69
2022/12/19 11:21:02;;;;;;;18.13;12.07;;;7.70;89.60;;;;;;5088368;28;20043;-69
2022/12/19 11:23:30;;;;;;;15.88;11.02;;;7.70;89.60;;;;;;5113121;28;20043;-69
2022/12/19 11:26:02;;;;;;;15.38;10.35;;;7.70;90.00;;;;;;5119265;27;20390;-69
2022/12/19 11:28:36;;;;;;;16.77;11.45;;;7.80;89.70;;;;;;5115186;27;20051;-69
2022/12/19 11:31:06;;;;;;;17.58;11.35;;;7.70;89.60;;;;;;5118189;27;20047;-69
2022/12/19 11:33:32;;;;;;;16.40;11.98;;;7.80;89.70;;;;;;5115425;27;20036;-69
2022/12/19 11:36:01;;;;;;;15.10;10.48;;;7.80;89.70;;;;;;5125598;27;20120;-69
2022/12/19 11:38:51;;;;;;;15.02;11.38;;;7.80;89.70;;;;;;5118954;27;21077;-69
2022/12/19 11:41:30;;;;;;;18.15;10.45;;;7.90;89.80;;;;;;5093811;27;20160;-69
2022/12/19 11:44:02;;;;;;;14.90;11.13;;;7.90;89.80;;;;;;5116166;27;20039;-69
2022/12/19 11:46:27;;;;;;;12.52;9.60;;;7.90;89.80;;;;;;5117006;27;20104;-69
2022/12/19 11:49:04;;;;;;;14.25;10.15;;;7.90;89.80;;;;;;5122262;27;20043;-69
2022/12/19 11:51:41;;;;;;;16.85;11.13;;;8.00;89.90;;;;;;5114292;27;20577;-69
2022/12/19 11:54:29;;;;;;;13.48;10.05;;;8.00;89.80;;;;;;5113213;27;20071;-68
2022/12/19 11:56:55;;;;;;;14.90;10.98;;;8.00;89.80;;;;;;5108604;27;20039;-69
2022/12/19 11:59:30;;;;;;;13.20;10.00;;;8.00;89.70;;;;;;5123686;27;20035;-69
2022/12/19 12:02:24;;;;;;;14.48;10.00;;;8.10;89.80;;;;;;5119930;27;20191;-68
2022/12/19 12:05:24;;;;;;;13.32;10.00;;;8.10;89.90;;;;;;5117830;27;20043;-69
2022/12/19 12:08:25;;;;;;;13.93;10.13;;;8.10;89.90;;;;;;5116412;27;20034;-69
2022/12/19 12:11:18;;;;;;;16.08;10.38;;;8.10;89.90;;;;;;5112055;27;20039;-70
2022/12/19 12:13:49;;;;;;;12.52;9.20;;;8.10;89.90;;;;;;5113526;27;20050;-69
2022/12/19 12:16:16;;;;;;;11.00;8.93;;;8.20;89.80;;;;;;5111630;27;20050;-69
2022/12/19 12:18:48;;;;;;;12.30;8.57;;;8.20;89.80;;;;;;5114823;27;20092;-69
2022/12/19 12:21:24;;;;;;;15.20;9.60;;;8.20;89.80;;;;;;5121044;27;20061;-69
2022/12/19 12:24:12;;;;;;;13.73;9.73;;;8.30;89.90;;;;;;5116553;27;20383;-70
2022/12/19 12:26:52;;;;;;;10.95;8.68;;;8.30;89.90;;;;;;5120560;27;20065;-67
2022/12/19 12:29:30;;;;;;;12.13;9.63;;;8.30;89.80;;;;;;5121119;27;20046;-70
2022/12/19 12:32:14;;;;;;;14.02;9.85;;;8.30;89.80;;;;;;5116764;27;20558;-69
2022/12/19 12:35:18;;;;;;;10.95;8.77;;;8.30;89.80;;;;;;5116913;27;20406;-68
2022/12/19 12:37:52;;;;;;;12.25;8.40;;;8.30;89.70;;;;;;5048969;28;20044;-68
2022/12/19 12:40:24;;;;;;;15.27;9.77;;;8.40;89.70;;;;;;5105424;27;20051;-68
2022/12/19 12:43:02;;;;;;;10.90;8.70;;;8.40;89.70;;;;;;5113344;27;20695;-68
2022/12/19 12:45:40;;;;;;;11.00;8.07;;;8.40;89.70;;;;;;5122306;27;22023;-69
2022/12/19 12:48:17;;;;;;;11.40;8.90;;;8.50;89.80;;;;;;5119554;27;21365;-71
2022/12/19 12:50:45;;;;;;;13.07;9.00;;;8.40;89.80;;;;;;5122871;27;20107;-71
2022/12/19 12:53:16;;;;;;;11.50;9.05;;;8.50;89.70;;;;;;5114693;27;20045;-72
2022/12/19 12:55:43;;;;;;;13.50;9.55;;;8.50;89.70;;;;;;5124564;27;20035;-72
2022/12/19 12:58:50;;;;;;;12.63;8.77;;;8.50;89.60;;;;;;5118156;27;20046;-72
2022/12/19 13:01:28;;;;;;;12.05;9.55;;;8.60;89.80;;;;;;5108632;27;20631;-69
2022/12/19 13:04:05;;;;;;;13.65;9.23;;;8.60;89.80;;;;;;5112343;27;21527;-72
2022/12/19 13:06:53;;;;;;;14.25;9.60;;;8.60;89.70;;;;;;5124022;27;20079;-73